Time,TemperatureF,DewpointF,PressureIn,WindDirection,WindDirectionDegrees,WindSpeedMPH,WindSpeedGustMPH,Humidity,HourlyPrecipIn,Conditions,Clouds,dailyrainin,SoftwareType,DateUTC
2013-11-15 00:04:00,41.7,32.3,30.08,South,180,0.0,0.0,69,0.00,,,0.00,WUHU21623XXSP,2013-11-15 06:04:00,
2013-11-15 00:09:00,41.7,32.7,30.08,South,180,0.0,0.0,70,0.00,,,0.00,WUHU21623XXSP,2013-11-15 06:09:00,
2013-11-15 00:14:00,41.7,32.3,30.08,South,180,0.0,0.0,69,0.00,,,0.00,WUHU21623XXSP,2013-11-15 06:14:00,
2013-11-15 00:19:00,41.5,32.1,30.08,South,180,0.0,0.0,69,0.00,,,0.00,WUHU21623XXSP,2013-11-15 06:19:00,
2013-11-15 00:24:00,41.5,32.5,30.08,South,180,0.0,0.0,70,0.00,,,0.00,WUHU21623XXSP,2013-11-15 06:24:00,
2013-11-15 00:29:00,41.5,32.5,30.08,South,180,0.0,0.0,70,0.00,,,0.00,WUHU21623XXSP,2013-11-15 06:29:00,
2013-11-15 00:34:00,41.7,33.0,30.08,South,180,0.0,0.0,71,0.00,,,0.00,WUHU21623XXSP,2013-11-15 06:34:00,
2013-11-15 00:39:00,41.9,32.9,30.08,SSE,157,2.0,2.0,70,0.00,,,0.00,WUHU21623XXSP,2013-11-15 06:39:00,
2013-11-15 00:44:00,42.4,32.6,30.08,South,180,0.0,2.0,68,0.00,,,0.00,WUHU21623XXSP,2013-11-15 06:44:00,
2013-11-15 00:49:00,42.6,32.4,30.08,South,180,0.0,2.0,67,0.00,,,0.00,WUHU21623XXSP,2013-11-15 06:49:00,
2013-11-15 00:54:00,43.0,32.4,30.08,South,180,0.0,0.0,66,0.00,,,0.00,WUHU21623XXSP,2013-11-15 06:54:00,
2013-11-15 00:59:00,43.0,32.4,30.08,South,180,0.0,0.0,66,0.00,,,0.00,WUHU21623XXSP,2013-11-15 06:59:00,
2013-11-15 01:04:00,43.2,32.2,30.08,SSW,202,0.0,0.0,65,0.00,,,0.00,WUHU21623XXSP,2013-11-15 07:04:00,
2013-11-15 01:09:00,43.3,31.9,30.08,South,180,0.0,0.0,64,0.00,,,0.00,WUHU21623XXSP,2013-11-15 07:09:00,
2013-11-15 01:14:00,43.3,31.6,30.08,SSW,202,0.0,0.0,63,0.00,,,0.00,WUHU21623XXSP,2013-11-15 07:14:00,
2013-11-15 01:19:00,43.5,31.7,30.08,South,180,0.0,0.0,63,0.00,,,0.00,WUHU21623XXSP,2013-11-15 07:19:00,
2013-11-15 01:24:00,43.5,31.7,30.08,SSE,157,0.0,0.0,63,0.00,,,0.00,WUHU21623XXSP,2013-11-15 07:24:00,
2013-11-15 01:29:00,43.7,31.5,30.07,South,180,0.0,0.0,62,0.00,,,0.00,WUHU21623XXSP,2013-11-15 07:29:00,
2013-11-15 01:34:00,43.7,31.5,30.08,SSE,157,0.0,0.0,62,0.00,,,0.00,WUHU21623XXSP,2013-11-15 07:34:00,
2013-11-15 01:39:00,43.9,31.7,30.07,South,180,0.0,0.0,62,0.00,,,0.00,WUHU21623XXSP,2013-11-15 07:39:00,
2013-11-15 01:44:00,43.9,31.7,30.07,SSE,157,0.0,0.0,62,0.00,,,0.00,WUHU21623XXSP,2013-11-15 07:44:00,
2013-11-15 01:49:00,43.9,31.7,30.07,SSE,157,0.0,0.0,62,0.00,,,0.00,WUHU21623XXSP,2013-11-15 07:49:00,
2013-11-15 01:54:00,43.9,31.3,30.07,South,180,0.0,0.0,61,0.00,,,0.00,WUHU21623XXSP,2013-11-15 07:54:00,
2013-11-15 01:59:00,43.9,31.3,30.07,SSE,157,0.0,0.0,61,0.00,,,0.00,WUHU21623XXSP,2013-11-15 07:59:00,
2013-11-15 02:04:00,44.1,31.3,30.07,SSE,157,0.0,0.0,61,0.00,,,0.00,WUHU21623XXSP,2013-11-15 08:04:00,
2013-11-15 02:09:00,44.1,31.5,30.07,SSE,157,0.0,0.0,61,0.00,,,0.00,WUHU21623XXSP,2013-11-15 08:09:00,
2013-11-15 02:14:00,44.1,31.1,30.07,South,180,0.0,0.0,60,0.00,,,0.00,WUHU21623XXSP,2013-11-15 08:14:00,
2013-11-15 02:19:00,44.1,31.1,30.06,South,180,0.0,0.0,60,0.00,,,0.00,WUHU21623XXSP,2013-11-15 08:19:00,
2013-11-15 02:24:00,44.2,31.3,30.06,South,180,0.0,0.0,60,0.00,,,0.00,WUHU21623XXSP,2013-11-15 08:24:00,
2013-11-15 02:29:00,44.2,31.3,30.05,South,180,0.0,0.0,60,0.00,,,0.00,WUHU21623XXSP,2013-11-15 08:29:00,
2013-11-15 02:34:00,44.2,31.3,30.06,SSE,157,0.0,0.0,60,0.00,,,0.00,WUHU21623XXSP,2013-11-15 08:34:00,
2013-11-15 02:39:00,44.4,31.3,30.06,SSE,157,0.0,0.0,60,0.00,,,0.00,WUHU21623XXSP,2013-11-15 08:39:00,
2013-11-15 02:44:00,44.4,31.5,30.06,South,180,0.0,0.0,60,0.00,,,0.00,WUHU21623XXSP,2013-11-15 08:44:00,
2013-11-15 02:49:00,44.4,31.0,30.06,South,180,0.0,0.0,59,0.00,,,0.00,WUHU21623XXSP,2013-11-15 08:49:00,
2013-11-15 02:54:00,44.6,31.2,30.06,South,180,0.0,0.0,59,0.00,,,0.00,WUHU21623XXSP,2013-11-15 08:54:00,
2013-11-15 02:59:00,44.8,31.2,30.06,South,180,0.0,0.0,59,0.00,,,0.00,WUHU21623XXSP,2013-11-15 08:59:00,
2013-11-15 03:04:00,44.8,31.4,30.06,SSE,157,0.0,0.0,59,0.00,,,0.00,WUHU21623XXSP,2013-11-15 09:04:00,
2013-11-15 03:09:00,44.8,31.4,30.06,SSE,157,0.0,0.0,59,0.00,,,0.00,WUHU21623XXSP,2013-11-15 09:09:00,
2013-11-15 03:14:00,44.6,31.4,30.05,SSE,157,0.0,0.0,59,0.00,,,0.00,WUHU21623XXSP,2013-11-15 09:14:00,
2013-11-15 03:19:00,44.8,31.4,30.06,SSE,157,0.0,0.0,59,0.00,,,0.00,WUHU21623XXSP,2013-11-15 09:19:00,
2013-11-15 03:24:00,44.8,30.9,30.05,South,180,0.0,0.0,58,0.00,,,0.00,WUHU21623XXSP,2013-11-15 09:24:00,
2013-11-15 03:29:00,44.8,31.4,30.05,South,180,0.0,0.0,59,0.00,,,0.00,WUHU21623XXSP,2013-11-15 09:29:00,
2013-11-15 03:34:00,44.8,30.9,30.04,South,180,0.0,0.0,59,0.00,,,0.00,WUHU21623XXSP,2013-11-15 09:34:00,
2013-11-15 03:39:00,44.8,30.9,30.05,South,180,0.0,0.0,58,0.00,,,0.00,WUHU21623XXSP,2013-11-15 09:39:00,
2013-11-15 03:44:00,45.0,31.1,30.05,South,180,0.0,0.0,58,0.00,,,0.00,WUHU21623XXSP,2013-11-15 09:44:00,
2013-11-15 03:49:00,45.0,30.6,30.05,SSE,157,0.0,0.0,57,0.00,,,0.00,WUHU21623XXSP,2013-11-15 09:49:00,
2013-11-15 03:54:00,45.0,30.6,30.03,SSE,157,0.0,0.0,57,0.00,,,0.00,WUHU21623XXSP,2013-11-15 09:54:00,
2013-11-15 03:59:00,45.0,30.6,30.04,South,180,0.0,0.0,57,0.00,,,0.00,WUHU21623XXSP,2013-11-15 09:59:00,
2013-11-15 04:04:00,45.1,30.3,30.04,SSE,157,0.0,0.0,56,0.00,,,0.00,WUHU21623XXSP,2013-11-15 10:04:00,
2013-11-15 04:09:00,45.1,30.3,30.04,SSE,157,0.0,0.0,56,0.00,,,0.00,WUHU21623XXSP,2013-11-15 10:09:00,
2013-11-15 04:14:00,45.1,30.8,30.04,SSE,157,0.0,0.0,57,0.00,,,0.00,WUHU21623XXSP,2013-11-15 10:14:00,
2013-11-15 04:19:00,45.1,30.3,30.04,SSE,157,0.0,0.0,56,0.00,,,0.00,WUHU21623XXSP,2013-11-15 10:19:00,
2013-11-15 04:24:00,45.1,30.3,30.04,SSE,157,0.0,0.0,56,0.00,,,0.00,WUHU21623XXSP,2013-11-15 10:24:00,
2013-11-15 04:29:00,45.3,30.5,30.05,SSE,157,0.0,0.0,56,0.00,,,0.00,WUHU21623XXSP,2013-11-15 10:29:00,
2013-11-15 04:34:00,45.5,30.5,30.04,South,180,0.0,0.0,55,0.00,,,0.00,WUHU21623XXSP,2013-11-15 10:34:00,
2013-11-15 04:39:00,45.7,30.4,30.04,South,180,0.0,2.9,55,0.00,,,0.00,WUHU21623XXSP,2013-11-15 10:39:00,
2013-11-15 04:44:00,45.7,30.4,30.04,South,180,0.0,2.9,55,0.00,,,0.00,WUHU21623XXSP,2013-11-15 10:44:00,
2013-11-15 04:49:00,46.0,30.7,30.04,South,180,0.0,0.0,55,0.00,,,0.00,WUHU21623XXSP,2013-11-15 10:49:00,
2013-11-15 04:54:00,46.0,30.2,30.04,South,180,0.0,0.0,55,0.00,,,0.00,WUHU21623XXSP,2013-11-15 10:54:00,
2013-11-15 04:59:00,46.0,30.2,30.04,South,180,0.0,0.0,54,0.00,,,0.00,WUHU21623XXSP,2013-11-15 10:59:00,
2013-11-15 05:04:00,46.2,30.4,30.04,SSW,202,0.0,0.0,54,0.00,,,0.00,WUHU21623XXSP,2013-11-15 11:04:00,
2013-11-15 05:09:00,46.2,30.4,30.04,South,180,0.0,0.0,54,0.00,,,0.00,WUHU21623XXSP,2013-11-15 11:09:00,
2013-11-15 05:14:00,46.2,30.8,30.04,SSW,202,0.0,0.0,54,0.00,,,0.00,WUHU21623XXSP,2013-11-15 11:14:00,
2013-11-15 05:20:00,46.2,31.3,30.05,SSE,157,0.0,0.0,56,0.00,,,0.00,WUHU21623XXSP,2013-11-15 11:20:00,
2013-11-15 05:25:00,46.0,33.3,30.05,SE,135,0.0,0.0,61,0.00,,,0.00,WUHU21623XXSP,2013-11-15 11:25:00,
2013-11-15 05:30:00,44.2,34.1,30.05,South,180,3.4,3.4,69,0.00,,,0.00,WUHU21623XXSP,2013-11-15 11:30:00,
2013-11-15 05:35:00,43.0,34.3,30.05,South,180,0.0,3.4,71,0.00,,,0.00,WUHU21623XXSP,2013-11-15 11:35:00,
2013-11-15 05:40:00,42.1,34.4,30.04,South,180,0.0,0.0,74,0.00,,,0.00,WUHU21623XXSP,2013-11-15 11:40:00,
2013-11-15 05:45:00,41.2,35.1,30.04,South,180,0.0,0.0,79,0.00,,,0.00,WUHU21623XXSP,2013-11-15 11:45:00,
2013-11-15 05:50:00,40.8,35.4,30.04,SSW,202,0.0,0.0,81,0.00,,,0.00,WUHU21623XXSP,2013-11-15 11:50:00,
2013-11-15 05:55:00,40.6,35.7,30.05,SSE,157,0.0,0.0,82,0.00,,,0.00,WUHU21623XXSP,2013-11-15 11:55:00,
2013-11-15 06:00:00,40.3,35.5,30.05,South,180,0.0,0.0,83,0.00,,,0.00,WUHU21623XXSP,2013-11-15 12:00:00,
2013-11-15 06:05:00,40.3,35.8,30.04,South,180,0.0,0.0,84,0.00,,,0.00,WUHU21623XXSP,2013-11-15 12:05:00,
2013-11-15 06:10:00,40.3,35.8,30.04,South,180,0.0,0.0,84,0.00,,,0.00,WUHU21623XXSP,2013-11-15 12:10:00,
2013-11-15 06:15:00,40.3,36.1,30.04,SE,135,0.0,0.0,85,0.00,,,0.00,WUHU21623XXSP,2013-11-15 12:15:00,
2013-11-15 06:20:00,40.3,35.9,30.04,SE,135,0.0,0.0,85,0.00,,,0.00,WUHU21623XXSP,2013-11-15 12:20:00,
2013-11-15 06:25:00,40.1,35.9,30.04,SE,135,0.0,0.0,85,0.00,,,0.00,WUHU21623XXSP,2013-11-15 12:25:00,
2013-11-15 06:30:00,40.3,36.4,30.05,SE,135,0.0,0.0,86,0.00,,,0.00,WUHU21623XXSP,2013-11-15 12:30:00,
2013-11-15 06:35:00,40.3,36.4,30.05,SSE,157,0.0,0.0,86,0.00,,,0.00,WUHU21623XXSP,2013-11-15 12:35:00,
2013-11-15 06:40:00,40.3,36.7,30.04,SSE,157,0.0,0.0,87,0.00,,,0.00,WUHU21623XXSP,2013-11-15 12:40:00,
2013-11-15 06:45:00,40.3,36.7,30.04,SSE,157,0.0,0.0,87,0.00,,,0.00,WUHU21623XXSP,2013-11-15 12:45:00,
2013-11-15 06:50:00,40.3,36.7,30.04,SSE,157,0.0,0.0,87,0.00,,,0.00,WUHU21623XXSP,2013-11-15 12:50:00,
2013-11-15 06:55:00,40.3,36.7,30.04,SSE,157,0.0,0.0,87,0.00,,,0.00,WUHU21623XXSP,2013-11-15 12:55:00,
2013-11-15 07:00:00,40.5,37.1,30.04,South,180,0.0,0.0,88,0.00,,,0.00,WUHU21623XXSP,2013-11-15 13:00:00,
2013-11-15 07:05:00,40.3,37.0,30.03,South,180,0.0,0.0,88,0.00,,,0.00,WUHU21623XXSP,2013-11-15 13:05:00,
2013-11-15 07:10:00,40.5,37.1,30.04,South,180,0.0,0.0,88,0.00,,,0.00,WUHU21623XXSP,2013-11-15 13:10:00,
2013-11-15 07:15:00,40.5,37.1,30.05,South,180,0.0,0.0,88,0.00,,,0.00,WUHU21623XXSP,2013-11-15 13:15:00,
2013-11-15 07:20:00,40.6,37.3,30.05,South,180,0.0,0.0,88,0.00,,,0.00,WUHU21623XXSP,2013-11-15 13:20:00,
2013-11-15 07:25:00,40.6,37.3,30.05,SSW,202,0.0,0.0,88,0.00,,,0.00,WUHU21623XXSP,2013-11-15 13:25:00,
2013-11-15 07:30:00,40.6,37.6,30.05,South,180,0.0,0.0,89,0.00,,,0.00,WUHU21623XXSP,2013-11-15 13:30:00,
2013-11-15 07:35:00,40.8,37.8,30.05,South,180,0.0,0.0,89,0.00,,,0.00,WUHU21623XXSP,2013-11-15 13:35:00,
2013-11-15 07:40:00,40.8,37.8,30.05,South,180,0.0,0.0,89,0.00,,,0.00,WUHU21623XXSP,2013-11-15 13:40:00,
2013-11-15 07:45:00,40.8,37.8,30.05,South,180,0.0,0.0,89,0.00,,,0.00,WUHU21623XXSP,2013-11-15 13:45:00,
2013-11-15 07:50:00,40.8,37.8,30.05,South,180,0.0,0.0,89,0.00,,,0.00,WUHU21623XXSP,2013-11-15 13:50:00,
2013-11-15 07:55:00,40.8,37.8,30.04,South,180,0.0,0.0,90,0.00,,,0.00,WUHU21623XXSP,2013-11-15 13:55:00,
2013-11-15 08:00:00,41.0,38.3,30.05,SSE,157,0.0,0.0,90,0.00,,,0.00,WUHU21623XXSP,2013-11-15 14:00:00,
2013-11-15 08:05:00,41.0,38.3,30.04,SSE,157,0.0,0.0,90,0.00,,,0.00,WUHU21623XXSP,2013-11-15 14:05:00,
2013-11-15 08:10:00,41.2,38.5,30.05,SSE,157,0.0,0.0,90,0.00,,,0.00,WUHU21623XXSP,2013-11-15 14:10:00,
2013-11-15 08:15:00,41.5,38.8,30.05,SSE,157,0.0,0.0,90,0.00,,,0.00,WUHU21623XXSP,2013-11-15 14:15:00,
2013-11-15 08:20:00,41.5,38.8,30.05,SSE,157,0.0,0.0,90,0.00,,,0.00,WUHU21623XXSP,2013-11-15 14:20:00,
2013-11-15 08:25:00,41.7,39.0,30.05,SSE,157,0.0,0.0,90,0.00,,,0.00,WUHU21623XXSP,2013-11-15 14:25:00,
2013-11-15 08:30:00,41.9,39.5,30.06,SSE,157,0.0,0.0,91,0.00,,,0.00,WUHU21623XXSP,2013-11-15 14:30:00,
2013-11-15 08:35:00,42.1,39.6,30.05,SSE,157,0.0,0.0,91,0.00,,,0.00,WUHU21623XXSP,2013-11-15 14:35:00,
2013-11-15 08:40:00,42.3,39.8,30.05,SSE,157,0.0,0.0,91,0.00,,,0.00,WUHU21623XXSP,2013-11-15 14:40:00,
2013-11-15 08:45:00,42.4,40.0,30.05,SSE,157,0.0,0.0,91,0.00,,,0.00,WUHU21623XXSP,2013-11-15 14:45:00,
2013-11-15 08:50:00,42.6,40.2,30.05,SSE,157,0.0,0.0,91,0.00,,,0.00,WUHU21623XXSP,2013-11-15 14:50:00,
2013-11-15 08:55:00,43.0,40.5,30.05,South,180,0.0,0.0,91,0.00,,,0.00,WUHU21623XXSP,2013-11-15 14:55:00,
2013-11-15 09:00:00,43.3,40.7,30.05,SSE,157,0.0,0.0,91,0.00,,,0.00,WUHU21623XXSP,2013-11-15 15:00:00,
2013-11-15 09:05:00,43.7,41.3,30.05,South,180,0.0,0.0,91,0.00,,,0.00,WUHU21623XXSP,2013-11-15 15:05:00,
2013-11-15 09:10:00,43.9,41.5,30.05,SSE,157,0.0,0.0,91,0.00,,,0.00,WUHU21623XXSP,2013-11-15 15:10:00,
2013-11-15 09:15:00,44.4,42.0,30.05,South,180,0.0,0.0,91,0.00,,,0.00,WUHU21623XXSP,2013-11-15 15:15:00,
2013-11-15 09:20:00,44.8,42.4,30.06,South,180,0.0,0.0,91,0.00,,,0.00,WUHU21623XXSP,2013-11-15 15:20:00,
2013-11-15 09:25:00,45.0,42.5,30.05,SSE,157,0.0,0.0,91,0.00,,,0.00,WUHU21623XXSP,2013-11-15 15:25:00,
2013-11-15 09:30:00,45.3,42.9,30.05,South,180,6.9,6.9,91,0.00,,,0.00,WUHU21623XXSP,2013-11-15 15:30:00,
2013-11-15 09:35:00,46.0,43.6,30.05,WSW,247,0.0,6.9,91,0.00,,,0.00,WUHU21623XXSP,2013-11-15 15:35:00,
2013-11-15 09:40:00,46.6,44.1,30.05,South,180,0.0,0.0,91,0.00,,,0.00,WUHU21623XXSP,2013-11-15 15:40:00,
2013-11-15 09:45:00,47.1,44.7,30.05,SSE,157,0.0,0.0,91,0.00,,,0.00,WUHU21623XXSP,2013-11-15 15:45:00,
2013-11-15 09:50:00,47.8,45.0,30.05,South,180,0.0,0.0,91,0.00,,,0.00,WUHU21623XXSP,2013-11-15 15:50:00,
2013-11-15 09:55:00,48.4,45.9,30.05,SE,135,0.0,0.0,91,0.00,,,0.00,WUHU21623XXSP,2013-11-15 15:55:00,
2013-11-15 10:00:00,49.3,46.5,30.05,South,180,3.8,3.8,90,0.00,,,0.00,WUHU21623XXSP,2013-11-15 16:00:00,
2013-11-15 10:05:00,50.2,46.5,30.05,SSE,157,0.0,3.8,89,0.00,,,0.00,WUHU21623XXSP,2013-11-15 16:05:00,
2013-11-15 10:10:00,51.3,47.5,30.05,SSE,157,5.1,5.1,88,0.00,,,0.00,WUHU21623XXSP,2013-11-15 16:10:00,
2013-11-15 10:15:00,52.3,48.2,30.05,SSE,157,0.0,5.1,86,0.00,,,0.00,WUHU21623XXSP,2013-11-15 16:15:00,
2013-11-15 10:20:00,52.9,48.1,30.05,SSE,157,0.0,5.8,85,0.00,,,0.00,WUHU21623XXSP,2013-11-15 16:20:00,
2013-11-15 10:25:00,53.4,48.7,30.05,SSE,157,4.0,5.8,84,0.00,,,0.00,WUHU21623XXSP,2013-11-15 16:25:00,
2013-11-15 10:30:00,54.3,49.2,30.04,SE,135,0.0,4.0,83,0.00,,,0.00,WUHU21623XXSP,2013-11-15 16:30:00,
2013-11-15 10:35:00,55.0,49.9,30.04,SW,225,0.0,0.0,83,0.00,,,0.00,WUHU21623XXSP,2013-11-15 16:35:00,
2013-11-15 10:40:00,55.2,49.4,30.05,South,180,6.5,6.5,81,0.00,,,0.00,WUHU21623XXSP,2013-11-15 16:40:00,
2013-11-15 10:45:00,55.4,49.3,30.04,SSE,157,6.9,6.9,80,0.00,,,0.00,WUHU21623XXSP,2013-11-15 16:45:00,
2013-11-15 10:50:00,55.8,48.9,30.03,SSE,157,0.0,6.9,81,0.00,,,0.00,WUHU21623XXSP,2013-11-15 16:50:00,
2013-11-15 10:55:00,55.9,49.8,30.03,SSW,202,0.0,0.0,80,0.00,,,0.00,WUHU21623XXSP,2013-11-15 16:55:00,
2013-11-15 11:00:00,56.5,49.6,30.02,SSE,157,0.0,0.0,78,0.00,,,0.00,WUHU21623XXSP,2013-11-15 17:00:00,
2013-11-15 11:05:00,56.8,50.4,30.02,SSE,157,0.0,0.0,81,0.00,,,0.00,WUHU21623XXSP,2013-11-15 17:05:00,
2013-11-15 11:10:00,57.0,50.5,30.02,South,180,2.7,6.3,79,0.00,,,0.00,WUHU21623XXSP,2013-11-15 17:10:00,
2013-11-15 11:15:00,57.0,50.2,30.02,SSE,157,1.1,6.3,78,0.00,,,0.00,WUHU21623XXSP,2013-11-15 17:15:00,
2013-11-15 11:20:00,57.0,50.9,30.02,South,180,3.4,6.5,80,0.00,,,0.00,WUHU21623XXSP,2013-11-15 17:20:00,
2013-11-15 11:25:00,57.4,50.2,30.02,SSE,157,0.0,6.5,77,0.00,,,0.00,WUHU21623XXSP,2013-11-15 17:25:00,
2013-11-15 11:30:00,57.2,50.4,30.02,SE,135,0.0,6.3,78,0.00,,,0.00,WUHU21623XXSP,2013-11-15 17:30:00,
2013-11-15 11:35:00,57.4,50.5,30.02,SSE,157,7.4,7.4,78,0.00,,,0.00,WUHU21623XXSP,2013-11-15 17:35:00,
2013-11-15 11:40:00,57.6,50.7,30.01,SSE,157,0.0,7.4,78,0.00,,,0.00,WUHU21623XXSP,2013-11-15 17:40:00,
2013-11-15 11:45:00,57.6,50.2,30.02,SSE,157,0.0,6.5,77,0.00,,,0.00,WUHU21623XXSP,2013-11-15 17:45:00,
2013-11-15 11:50:00,57.7,50.9,30.02,SSE,157,0.0,0.0,78,0.00,,,0.00,WUHU21623XXSP,2013-11-15 17:50:00,
2013-11-15 11:55:00,57.9,50.4,30.01,SSE,157,3.8,4.3,75,0.00,,,0.00,WUHU21623XXSP,2013-11-15 17:55:00,
2013-11-15 12:00:00,58.1,50.9,30.01,SSE,157,4.3,4.3,77,0.00,,,0.00,WUHU21623XXSP,2013-11-15 18:00:00,
2013-11-15 12:05:00,58.3,51.1,30.01,South,180,0.0,4.3,77,0.00,,,0.00,WUHU21623XXSP,2013-11-15 18:05:00,
2013-11-15 12:10:00,58.8,51.6,30.00,South,180,3.8,5.8,77,0.00,,,0.00,WUHU21623XXSP,2013-11-15 18:10:00,
2013-11-15 12:15:00,58.8,50.9,30.00,SW,225,2.7,5.8,75,0.00,,,0.00,WUHU21623XXSP,2013-11-15 18:15:00,
2013-11-15 12:20:00,57.4,49.8,30.00,SSE,157,5.4,5.4,76,0.00,,,0.00,WUHU21623XXSP,2013-11-15 18:20:00,
2013-11-15 12:25:00,55.4,48.6,30.00,SSE,157,0.0,6.9,78,0.00,,,0.00,WUHU21623XXSP,2013-11-15 18:25:00,
2013-11-15 12:30:00,54.5,48.1,29.99,SSE,157,1.3,6.9,79,0.00,,,0.00,WUHU21623XXSP,2013-11-15 18:30:00,
2013-11-15 12:35:00,54.1,47.1,29.99,South,180,0.0,1.3,77,0.00,,,0.00,WUHU21623XXSP,2013-11-15 18:35:00,
2013-11-15 12:40:00,54.1,47.4,29.99,ESE,112,0.0,2.7,78,0.00,,,0.00,WUHU21623XXSP,2013-11-15 18:40:00,
2013-11-15 12:45:00,54.0,47.6,29.98,South,180,1.1,2.7,79,0.00,,,0.00,WUHU21623XXSP,2013-11-15 18:45:00,
2013-11-15 12:50:00,54.5,48.5,29.98,South,180,0.0,1.1,80,0.00,,,0.00,WUHU21623XXSP,2013-11-15 18:50:00,
2013-11-15 12:55:00,55.6,49.1,29.98,SSE,157,1.3,1.3,79,0.00,,,0.00,WUHU21623XXSP,2013-11-15 18:55:00,
2013-11-15 13:00:00,55.9,49.1,29.98,SE,135,0.0,1.3,78,0.00,,,0.00,WUHU21623XXSP,2013-11-15 19:00:00,
2013-11-15 13:05:00,56.5,49.6,29.98,SSE,157,2.9,2.9,78,0.00,,,0.00,WUHU21623XXSP,2013-11-15 19:05:00,
2013-11-15 13:10:00,57.4,49.8,29.98,SSE,157,0.7,3.8,76,0.00,,,0.00,WUHU21623XXSP,2013-11-15 19:10:00,
2013-11-15 13:15:00,58.1,51.6,29.97,SSE,157,3.4,3.8,79,0.00,,,0.00,WUHU21623XXSP,2013-11-15 19:15:00,
2013-11-15 13:20:00,58.8,52.3,29.98,SSE,157,0.0,3.4,74,0.00,,,0.00,WUHU21623XXSP,2013-11-15 19:20:00,
2013-11-15 13:25:00,57.6,50.0,29.98,SSE,157,1.3,1.6,76,0.00,,,0.00,WUHU21623XXSP,2013-11-15 19:25:00,
2013-11-15 13:30:00,56.5,50.2,29.97,SSE,157,1.3,1.6,78,0.00,,,0.00,WUHU21623XXSP,2013-11-15 19:30:00,
2013-11-15 13:35:00,55.2,48.8,29.97,WSW,247,0.0,1.3,79,0.00,,,0.00,WUHU21623XXSP,2013-11-15 19:35:00,
2013-11-15 13:40:00,54.3,48.3,29.97,SSE,157,2.0,2.5,80,0.00,,,0.00,WUHU21623XXSP,2013-11-15 19:40:00,
2013-11-15 13:45:00,54.0,48.1,29.97,SSE,157,0.0,2.5,80,0.00,,,0.00,WUHU21623XXSP,2013-11-15 19:45:00,
2013-11-15 13:50:00,53.8,47.8,29.97,SSE,157,4.0,4.0,80,0.00,,,0.00,WUHU21623XXSP,2013-11-15 19:50:00,
2013-11-15 13:55:00,53.4,47.8,29.97,SSE,157,2.0,4.0,81,0.00,,,0.00,WUHU21623XXSP,2013-11-15 19:55:00,
2013-11-15 14:00:00,53.4,47.5,29.97,SSE,157,0.0,6.9,80,0.00,,,0.00,WUHU21623XXSP,2013-11-15 20:00:00,
2013-11-15 14:05:00,54.0,48.6,29.97,SSE,157,0.0,6.9,82,0.00,,,0.00,WUHU21623XXSP,2013-11-15 20:05:00,
2013-11-15 14:10:00,54.1,48.8,29.97,SSE,157,2.7,2.7,82,0.00,,,0.00,WUHU21623XXSP,2013-11-15 20:10:00,
2013-11-15 14:15:00,54.1,48.8,29.97,SSE,157,2.0,2.7,82,0.00,,,0.00,WUHU21623XXSP,2013-11-15 20:15:00,
2013-11-15 14:20:00,54.0,48.6,29.97,South,180,0.0,2.0,82,0.00,,,0.00,WUHU21623XXSP,2013-11-15 20:20:00,
2013-11-15 14:25:00,53.8,48.7,29.97,SSW,202,0.0,0.0,82,0.00,,,0.00,WUHU21623XXSP,2013-11-15 20:25:00,
2013-11-15 14:30:00,53.4,48.1,29.97,SSE,157,0.0,0.0,82,0.00,,,0.00,WUHU21623XXSP,2013-11-15 20:30:00,
2013-11-15 14:35:00,53.8,48.7,29.97,SSW,202,0.0,0.0,83,0.00,,,0.00,WUHU21623XXSP,2013-11-15 20:35:00,
2013-11-15 14:40:00,53.4,48.1,29.97,SSE,157,4.3,4.3,82,0.00,,,0.00,WUHU21623XXSP,2013-11-15 20:40:00,
2013-11-15 14:45:00,53.4,48.4,29.97,SSE,157,2.7,5.1,83,0.00,,,0.00,WUHU21623XXSP,2013-11-15 20:45:00,
2013-11-15 14:50:00,53.2,47.9,29.97,South,180,5.4,5.4,82,0.00,,,0.00,WUHU21623XXSP,2013-11-15 20:50:00,
2013-11-15 14:55:00,53.2,48.2,29.97,SW,225,0.0,5.4,83,0.00,,,0.00,WUHU21623XXSP,2013-11-15 20:55:00,
2013-11-15 15:00:00,53.1,48.0,29.96,SSE,157,0.0,5.4,83,0.00,,,0.00,WUHU21623XXSP,2013-11-15 21:00:00,
2013-11-15 15:05:00,52.9,48.0,29.96,South,180,4.7,4.7,83,0.00,,,0.00,WUHU21623XXSP,2013-11-15 21:05:00,
2013-11-15 15:10:00,52.9,48.2,29.96,South,180,3.8,4.7,83,0.00,,,0.00,WUHU21623XXSP,2013-11-15 21:10:00,
2013-11-15 15:15:00,52.9,48.0,29.96,SSE,157,0.0,3.8,83,0.00,,,0.00,WUHU21623XXSP,2013-11-15 21:15:00,
2013-11-15 15:20:00,52.9,48.2,29.95,South,180,2.2,2.2,84,0.00,,,0.00,WUHU21623XXSP,2013-11-15 21:20:00,
2013-11-15 15:25:00,52.9,47.9,29.95,SSE,157,0.0,6.9,83,0.00,,,0.00,WUHU21623XXSP,2013-11-15 21:25:00,
2013-11-15 15:30:00,52.9,48.2,29.95,SSE,157,0.0,0.0,84,0.00,,,0.00,WUHU21623XXSP,2013-11-15 21:30:00,
2013-11-15 15:35:00,52.7,47.7,29.95,SSW,202,2.9,3.1,83,0.00,,,0.00,WUHU21623XXSP,2013-11-15 21:35:00,
2013-11-15 15:40:00,52.7,47.5,29.95,South,180,0.0,3.1,83,0.00,,,0.00,WUHU21623XXSP,2013-11-15 21:40:00,
2013-11-15 15:45:00,52.5,47.8,29.95,SSW,202,0.0,2.9,84,0.00,,,0.00,WUHU21623XXSP,2013-11-15 21:45:00,
2013-11-15 15:51:00,52.3,48.1,29.95,SSE,157,0.0,3.4,85,0.00,,,0.00,WUHU21623XXSP,2013-11-15 21:51:00,
2013-11-15 15:56:00,52.3,47.6,29.94,South,180,5.4,8.1,84,0.00,,,0.00,WUHU21623XXSP,2013-11-15 21:56:00,
2013-11-15 16:01:00,52.2,47.4,29.95,SSW,202,6.7,8.1,84,0.00,,,0.00,WUHU21623XXSP,2013-11-15 22:01:00,
2013-11-15 16:06:00,52.0,47.3,29.95,South,180,0.0,6.7,84,0.00,,,0.00,WUHU21623XXSP,2013-11-15 22:06:00,
2013-11-15 16:11:00,52.0,47.6,29.95,South,180,2.5,3.4,85,0.00,,,0.00,WUHU21623XXSP,2013-11-15 22:11:00,
2013-11-15 16:16:00,52.0,47.6,29.94,South,180,6.0,6.0,85,0.00,,,0.00,WUHU21623XXSP,2013-11-15 22:16:00,
2013-11-15 16:21:00,51.8,47.4,29.94,South,180,0.0,6.0,85,0.00,,,0.00,WUHU21623XXSP,2013-11-15 22:21:00,
2013-11-15 16:26:00,51.6,47.2,29.94,SSE,157,1.6,1.6,86,0.00,,,0.00,WUHU21623XXSP,2013-11-15 22:26:00,
2013-11-15 16:31:00,51.6,47.5,29.93,SSE,157,0.0,1.6,86,0.00,,,0.00,WUHU21623XXSP,2013-11-15 22:31:00,
2013-11-15 16:36:00,51.4,47.3,29.93,South,180,0.0,1.8,86,0.00,,,0.00,WUHU21623XXSP,2013-11-15 22:36:00,
2013-11-15 16:41:00,51.4,47.6,29.92,SSE,157,0.0,1.8,87,0.00,,,0.00,WUHU21623XXSP,2013-11-15 22:41:00,
2013-11-15 16:46:00,51.4,47.6,29.92,SSE,157,0.0,0.0,87,0.00,,,0.00,WUHU21623XXSP,2013-11-15 22:46:00,
2013-11-15 16:51:00,51.3,47.2,29.92,SSE,157,0.0,0.0,86,0.00,,,0.00,WUHU21623XXSP,2013-11-15 22:51:00,
2013-11-15 16:56:00,51.3,47.2,29.92,South,180,0.0,0.0,86,0.00,,,0.00,WUHU21623XXSP,2013-11-15 22:56:00,
2013-11-15 17:01:00,51.1,47.3,29.92,SE,135,0.0,0.0,87,0.00,,,0.00,WUHU21623XXSP,2013-11-15 23:01:00,
2013-11-15 17:06:00,51.1,47.3,29.91,SSE,157,0.0,0.0,87,0.00,,,0.00,WUHU21623XXSP,2013-11-15 23:06:00,
2013-11-15 17:11:00,50.9,47.1,29.91,SSE,157,0.0,0.0,87,0.00,,,0.00,WUHU21623XXSP,2013-11-15 23:11:00,
2013-11-15 17:16:00,50.9,47.1,29.92,SSE,157,0.0,0.0,87,0.00,,,0.00,WUHU21623XXSP,2013-11-15 23:16:00,
2013-11-15 17:21:00,50.7,46.9,29.92,South,180,0.0,0.0,88,0.00,,,0.00,WUHU21623XXSP,2013-11-15 23:21:00,
2013-11-15 17:26:00,50.7,47.2,29.92,SSE,157,0.0,0.0,88,0.00,,,0.00,WUHU21623XXSP,2013-11-15 23:26:00,
2013-11-15 17:31:00,50.7,46.9,29.92,South,180,5.6,5.6,87,0.00,,,0.00,WUHU21623XXSP,2013-11-15 23:31:00,
2013-11-15 17:36:00,50.7,46.9,29.92,SSE,157,0.0,5.6,87,0.00,,,0.00,WUHU21623XXSP,2013-11-15 23:36:00,
2013-11-15 17:41:00,50.5,46.7,29.91,SSE,157,1.3,5.6,87,0.00,,,0.00,WUHU21623XXSP,2013-11-15 23:41:00,
2013-11-15 17:46:00,50.5,46.7,29.92,SSE,157,3.6,3.6,87,0.00,,,0.00,WUHU21623XXSP,2013-11-15 23:46:00,
2013-11-15 17:51:00,50.5,46.7,29.92,South,180,2.0,7.6,87,0.00,,,0.00,WUHU21623XXSP,2013-11-15 23:51:00,
2013-11-15 17:56:00,50.5,46.7,29.92,South,180,2.0,7.6,87,0.00,,,0.00,WUHU21623XXSP,2013-11-15 23:56:00,
2013-11-15 18:01:00,50.5,47.0,29.92,South,180,0.0,2.0,88,0.00,,,0.00,WUHU21623XXSP,2013-11-16 00:01:00,
2013-11-15 18:06:00,50.5,47.0,29.92,SSE,157,1.1,8.1,88,0.00,,,0.00,WUHU21623XXSP,2013-11-16 00:06:00,
2013-11-15 18:11:00,50.5,47.0,29.92,SSE,157,0.0,8.1,88,0.00,,,0.00,WUHU21623XXSP,2013-11-16 00:11:00,
2013-11-15 18:16:00,50.5,47.0,29.92,SSE,157,0.0,1.1,88,0.00,,,0.00,WUHU21623XXSP,2013-11-16 00:16:00,
2013-11-15 18:21:00,50.5,46.7,29.93,South,180,0.0,1.1,87,0.00,,,0.00,WUHU21623XXSP,2013-11-16 00:21:00,
2013-11-15 18:26:00,50.5,46.7,29.93,SSE,157,0.0,1.8,87,0.00,,,0.00,WUHU21623XXSP,2013-11-16 00:26:00,
2013-11-15 18:31:00,50.5,46.7,29.93,SE,135,2.7,2.7,87,0.00,,,0.00,WUHU21623XXSP,2013-11-16 00:31:00,
2013-11-15 18:36:00,50.4,46.6,29.93,SSE,157,0.0,5.1,87,0.00,,,0.00,WUHU21623XXSP,2013-11-16 00:36:00,
2013-11-15 18:41:00,50.4,46.9,29.93,SSE,157,0.4,5.1,88,0.00,,,0.00,WUHU21623XXSP,2013-11-16 00:41:00,
2013-11-15 18:46:00,50.4,46.9,29.93,South,180,7.4,7.4,88,0.00,,,0.00,WUHU21623XXSP,2013-11-16 00:46:00,
2013-11-15 18:51:00,50.2,46.7,29.93,SSE,157,0.0,7.4,88,0.00,,,0.00,WUHU21623XXSP,2013-11-16 00:51:00,
2013-11-15 18:56:00,50.2,46.7,29.93,SSW,202,2.5,7.4,88,0.00,,,0.00,WUHU21623XXSP,2013-11-16 00:56:00,
2013-11-15 19:01:00,50.0,46.5,29.92,SSE,157,0.7,2.5,88,0.00,,,0.00,WUHU21623XXSP,2013-11-16 01:01:00,
2013-11-15 19:06:00,50.2,46.5,29.93,South,180,5.8,5.8,88,0.00,,,0.00,WUHU21623XXSP,2013-11-16 01:06:00,
2013-11-15 19:11:00,50.2,46.7,29.94,South,180,6.3,6.3,88,0.00,,,0.00,WUHU21623XXSP,2013-11-16 01:11:00,
2013-11-15 19:16:00,50.2,46.7,29.94,SSE,157,0.0,6.3,88,0.00,,,0.00,WUHU21623XXSP,2013-11-16 01:16:00,
2013-11-15 19:21:00,50.2,46.7,29.94,SSE,157,0.0,2.5,88,0.00,,,0.00,WUHU21623XXSP,2013-11-16 01:21:00,
2013-11-15 19:26:00,50.2,46.7,29.94,SSE,157,0.0,2.5,88,0.00,,,0.00,WUHU21623XXSP,2013-11-16 01:26:00,
2013-11-15 19:31:00,50.2,46.7,29.94,SW,225,0.0,0.0,88,0.00,,,0.00,WUHU21623XXSP,2013-11-16 01:31:00,
2013-11-15 19:36:00,50.4,46.9,29.94,South,180,0.0,3.6,88,0.00,,,0.00,WUHU21623XXSP,2013-11-16 01:36:00,
2013-11-15 19:41:00,50.4,46.9,29.94,SSE,157,1.6,4.5,88,0.00,,,0.00,WUHU21623XXSP,2013-11-16 01:41:00,
2013-11-15 19:46:00,50.4,46.9,29.93,SSE,157,0.0,4.9,88,0.00,,,0.00,WUHU21623XXSP,2013-11-16 01:46:00,
2013-11-15 19:51:00,50.4,46.9,29.93,South,180,0.0,4.9,88,0.00,,,0.00,WUHU21623XXSP,2013-11-16 01:51:00,
2013-11-15 19:56:00,50.5,47.0,29.94,SSE,157,6.3,6.3,88,0.00,,,0.00,WUHU21623XXSP,2013-11-16 01:56:00,
2013-11-15 20:01:00,50.5,47.0,29.94,SSE,157,3.4,8.9,88,0.00,,,0.00,WUHU21623XXSP,2013-11-16 02:01:00,
2013-11-15 20:06:00,50.5,47.0,29.93,SSE,157,0.0,8.9,88,0.00,,,0.00,WUHU21623XXSP,2013-11-16 02:06:00,
2013-11-15 20:11:00,50.5,47.0,29.93,SSE,157,0.0,5.8,88,0.00,,,0.00,WUHU21623XXSP,2013-11-16 02:11:00,
2013-11-15 20:16:00,50.5,47.0,29.93,SSE,157,2.5,2.5,88,0.00,,,0.00,WUHU21623XXSP,2013-11-16 02:16:00,
2013-11-15 20:21:00,50.4,47.0,29.93,SSE,157,0.0,2.5,88,0.00,,,0.00,WUHU21623XXSP,2013-11-16 02:21:00,
2013-11-15 20:26:00,50.4,46.9,29.94,SSE,157,0.0,0.0,88,0.00,,,0.00,WUHU21623XXSP,2013-11-16 02:26:00,
2013-11-15 20:31:00,50.4,46.9,29.95,SSE,157,0.0,0.0,88,0.00,,,0.00,WUHU21623XXSP,2013-11-16 02:31:00,
2013-11-15 20:36:00,50.4,47.2,29.95,South,180,3.6,7.4,88,0.00,,,0.00,WUHU21623XXSP,2013-11-16 02:36:00,
2013-11-15 20:41:00,50.4,46.9,29.95,SSE,157,6.3,7.4,88,0.00,,,0.00,WUHU21623XXSP,2013-11-16 02:41:00,
2013-11-15 20:46:00,50.4,46.9,29.94,SSE,157,0.7,6.3,88,0.00,,,0.00,WUHU21623XXSP,2013-11-16 02:46:00,
2013-11-15 20:51:00,50.2,46.7,29.95,South,180,0.0,2.2,88,0.00,,,0.00,WUHU21623XXSP,2013-11-16 02:51:00,
2013-11-15 20:56:00,49.8,46.6,29.95,South,180,0.0,2.2,89,0.00,,,0.00,WUHU21623XXSP,2013-11-16 02:56:00,
2013-11-15 21:01:00,49.8,46.6,29.95,South,180,0.0,2.0,89,0.00,,,0.00,WUHU21623XXSP,2013-11-16 03:01:00,
2013-11-15 21:06:00,49.8,46.6,29.95,SSE,157,5.4,5.4,89,0.00,,,0.00,WUHU21623XXSP,2013-11-16 03:06:00,
2013-11-15 21:11:00,49.6,46.5,29.94,SSE,157,0.0,5.4,89,0.00,,,0.00,WUHU21623XXSP,2013-11-16 03:11:00,
2013-11-15 21:16:00,49.6,46.5,29.94,South,180,0.0,3.4,89,0.00,,,0.00,WUHU21623XXSP,2013-11-16 03:16:00,
2013-11-15 21:21:00,49.6,46.5,29.94,SSW,202,0.0,0.0,89,0.00,,,0.00,WUHU21623XXSP,2013-11-16 03:21:00,
2013-11-15 21:26:00,49.6,46.8,29.94,SSW,202,0.0,0.0,90,0.00,,,0.00,WUHU21623XXSP,2013-11-16 03:26:00,
2013-11-15 21:31:00,49.6,46.8,29.93,South,180,2.7,2.7,90,0.00,,,0.00,WUHU21623XXSP,2013-11-16 03:31:00,
2013-11-15 21:36:00,49.6,46.8,29.94,SSE,157,0.0,2.9,90,0.00,,,0.00,WUHU21623XXSP,2013-11-16 03:36:00,
2013-11-15 21:41:00,49.8,47.0,29.94,SSE,157,0.0,2.9,90,0.00,,,0.00,WUHU21623XXSP,2013-11-16 03:41:00,
2013-11-15 21:46:00,49.8,47.0,29.94,SSE,157,0.0,0.0,90,0.00,,,0.00,WUHU21623XXSP,2013-11-16 03:46:00,
2013-11-15 21:51:00,50.2,47.1,29.94,SSE,157,0.0,0.0,90,0.00,,,0.00,WUHU21623XXSP,2013-11-16 03:51:00,
2013-11-15 21:56:00,50.2,47.3,29.94,SSE,157,0.0,0.0,90,0.00,,,0.00,WUHU21623XXSP,2013-11-16 03:56:00,
2013-11-15 22:01:00,50.2,47.3,29.94,SSE,157,1.1,1.1,90,0.00,,,0.00,WUHU21623XXSP,2013-11-16 04:01:00,
2013-11-15 22:06:00,50.4,47.5,29.93,SSE,157,0.7,1.1,90,0.00,,,0.00,WUHU21623XXSP,2013-11-16 04:06:00,
2013-11-15 22:11:00,50.5,47.5,29.93,SSE,157,0.0,6.5,90,0.00,,,0.00,WUHU21623XXSP,2013-11-16 04:11:00,
2013-11-15 22:16:00,50.5,47.7,29.93,SSE,157,4.0,6.5,90,0.00,,,0.00,WUHU21623XXSP,2013-11-16 04:16:00,
2013-11-15 22:21:00,50.7,47.8,29.93,South,180,0.0,5.8,90,0.00,,,0.00,WUHU21623XXSP,2013-11-16 04:21:00,
2013-11-15 22:26:00,50.9,47.8,29.93,SSE,157,7.8,7.8,90,0.00,,,0.00,WUHU21623XXSP,2013-11-16 04:26:00,
2013-11-15 22:31:00,50.9,47.7,29.93,SE,135,0.9,7.8,89,0.00,,,0.00,WUHU21623XXSP,2013-11-16 04:31:00,
2013-11-15 22:36:00,51.1,47.9,29.92,SSE,157,3.8,7.8,89,0.00,,,0.00,WUHU21623XXSP,2013-11-16 04:36:00,
2013-11-15 22:41:00,51.1,47.9,29.92,SSE,157,0.0,3.8,89,0.00,,,0.00,WUHU21623XXSP,2013-11-16 04:41:00,
2013-11-15 22:46:00,51.3,48.4,29.92,SSE,157,0.0,0.4,90,0.00,,,0.00,WUHU21623XXSP,2013-11-16 04:46:00,
2013-11-15 22:51:00,51.3,48.4,29.92,SSE,157,0.0,0.4,90,0.00,,,0.00,WUHU21623XXSP,2013-11-16 04:51:00,
2013-11-15 22:56:00,51.4,48.6,29.92,SSE,157,1.3,1.3,90,0.00,,,0.00,WUHU21623XXSP,2013-11-16 04:56:00,
2013-11-15 23:01:00,51.4,48.6,29.92,SSE,157,0.0,1.3,90,0.00,,,0.00,WUHU21623XXSP,2013-11-16 05:01:00,
2013-11-15 23:06:00,51.6,48.6,29.92,SSE,157,0.0,0.0,90,0.00,,,0.00,WUHU21623XXSP,2013-11-16 05:06:00,
2013-11-15 23:11:00,51.6,48.7,29.92,SSE,157,0.0,0.0,90,0.00,,,0.00,WUHU21623XXSP,2013-11-16 05:11:00,
2013-11-15 23:16:00,52.0,48.9,29.92,South,180,0.0,0.0,90,0.00,,,0.00,WUHU21623XXSP,2013-11-16 05:16:00,
2013-11-15 23:21:00,52.0,49.1,29.92,SSW,202,0.0,0.0,90,0.00,,,0.00,WUHU21623XXSP,2013-11-16 05:21:00,
2013-11-15 23:26:00,52.3,49.5,29.92,South,180,1.1,2.9,90,0.00,,,0.00,WUHU21623XXSP,2013-11-16 05:26:00,
2013-11-15 23:31:00,52.5,49.6,29.93,SSE,157,2.7,2.9,90,0.00,,,0.00,WUHU21623XXSP,2013-11-16 05:31:00,
2013-11-15 23:36:00,52.7,49.8,29.92,SSW,202,0.0,2.7,90,0.00,,,0.00,WUHU21623XXSP,2013-11-16 05:36:00,
2013-11-15 23:41:00,52.9,50.0,29.92,South,180,0.0,0.9,90,0.00,,,0.00,WUHU21623XXSP,2013-11-16 05:41:00,
2013-11-15 23:46:00,53.2,50.4,29.92,SSE,157,0.0,2.7,90,0.00,,,0.00,WUHU21623XXSP,2013-11-16 05:46:00,
2013-11-15 23:51:00,53.2,50.4,29.92,SSE,157,0.0,2.7,90,0.00,,,0.00,WUHU21623XXSP,2013-11-16 05:51:00,
2013-11-15 23:56:00,53.2,50.1,29.91,SSE,157,0.0,0.7,89,0.00,,,0.00,WUHU21623XXSP,2013-11-16 05:56:00,